sensor_id;sensor_type;location;lat;lon;timestamp;pressure;altitude;pressure_sealevel;temperature;humidity
23318;BME280;11831;55.918;37.746;2023-04-28T00:00:49;98802.63;;;13.65;0.00
23318;BME280;11831;55.918;37.746;2023-04-28T00:03:15;98796.19;;;13.66;0.00
23318;BME280;11831;55.918;37.746;2023-04-28T00:05:42;98791.91;;;13.70;0.00
23318;BME280;11831;55.918;37.746;2023-04-28T00:08:08;98796.97;;;13.56;0.00
23318;BME280;11831;55.918;37.746;2023-04-28T00:10:34;98802.06;;;13.53;0.00
23318;BME280;11831;55.918;37.746;2023-04-28T00:13:00;98798.22;;;13.44;0.00
23318;BME280;11831;55.918;37.746;2023-04-28T00:15:26;98799.81;;;13.34;0.00
23318;BME280;11831;55.918;37.746;2023-04-28T00:17:52;98807.31;;;13.32;0.00
23318;BME280;11831;55.918;37.746;2023-04-28T00:20:19;98798.66;;;13.20;0.00
23318;BME280;11831;55.918;37.746;2023-04-28T00:22:45;98810.78;;;13.28;0.00
23318;BME280;11831;55.918;37.746;2023-04-28T00:25:11;98809.47;;;13.35;0.00
23318;BME280;11831;55.918;37.746;2023-04-28T00:27:37;98797.41;;;13.43;0.00
23318;BME280;11831;55.918;37.746;2023-04-28T00:30:03;98801.41;;;13.35;0.00
23318;BME280;11831;55.918;37.746;2023-04-28T00:32:31;98800.84;;;13.28;0.00
23318;BME280;11831;55.918;37.746;2023-04-28T00:34:57;98798.34;;;13.17;0.00
23318;BME280;11831;55.918;37.746;2023-04-28T00:37:23;98805.03;;;13.14;0.00
23318;BME280;11831;55.918;37.746;2023-04-28T00:39:53;98803.41;;;13.13;0.00
23318;BME280;11831;55.918;37.746;2023-04-28T00:42:19;98802.84;;;13.11;0.00
23318;BME280;11831;55.918;37.746;2023-04-28T00:44:45;98801.75;;;13.07;0.00
23318;BME280;11831;55.918;37.746;2023-04-28T00:47:11;98797.41;;;12.96;0.00
23318;BME280;11831;55.918;37.746;2023-04-28T00:49:38;98805.47;;;12.96;0.00
23318;BME280;11831;55.918;37.746;2023-04-28T00:52:04;98799.53;;;12.89;0.00
23318;BME280;11831;55.918;37.746;2023-04-28T00:54:32;98799.31;;;13.00;0.00
23318;BME280;11831;55.918;37.746;2023-04-28T00:56:59;98799.88;;;13.02;0.00
23318;BME280;11831;55.918;37.746;2023-04-28T00:59:28;98799.59;;;13.04;0.00
23318;BME280;11831;55.918;37.746;2023-04-28T01:01:54;98795.28;;;12.98;0.00
23318;BME280;11831;55.918;37.746;2023-04-28T01:04:21;98793.91;;;12.90;0.00
23318;BME280;11831;55.918;37.746;2023-04-28T01:06:48;98794.09;;;12.84;0.00
23318;BME280;11831;55.918;37.746;2023-04-28T01:09:14;98795.66;;;12.74;0.00
23318;BME280;11831;55.918;37.746;2023-04-28T01:11:40;98798.16;;;12.86;0.00
23318;BME280;11831;55.918;37.746;2023-04-28T01:14:06;98797.59;;;12.84;0.00
23318;BME280;11831;55.918;37.746;2023-04-28T01:16:32;98792.00;;;12.86;0.00
23318;BME280;11831;55.918;37.746;2023-04-28T01:18:59;98789.53;;;12.84;0.00
23318;BME280;11831;55.918;37.746;2023-04-28T01:21:26;98801.00;;;12.74;0.00
23318;BME280;11831;55.918;37.746;2023-04-28T01:23:57;98799.91;;;12.70;0.00
23318;BME280;11831;55.918;37.746;2023-04-28T01:26:24;98801.03;;;12.80;0.00
23318;BME280;11831;55.918;37.746;2023-04-28T01:28:50;98801.53;;;12.71;0.00
23318;BME280;11831;55.918;37.746;2023-04-28T01:31:16;98807.66;;;12.67;0.00
23318;BME280;11831;55.918;37.746;2023-04-28T01:33:42;98808.25;;;12.74;0.00
23318;BME280;11831;55.918;37.746;2023-04-28T01:36:08;98804.25;;;12.77;0.00
23318;BME280;11831;55.918;37.746;2023-04-28T01:38:34;98803.38;;;12.66;0.00
23318;BME280;11831;55.918;37.746;2023-04-28T01:41:00;98812.47;;;12.65;0.00
23318;BME280;11831;55.918;37.746;2023-04-28T01:43:27;98802.84;;;12.69;0.00
23318;BME280;11831;55.918;37.746;2023-04-28T01:45:53;98805.53;;;12.69;0.00
23318;BME280;11831;55.918;37.746;2023-04-28T01:48:20;98801.62;;;12.50;0.00
23318;BME280;11831;55.918;37.746;2023-04-28T01:50:46;98815.31;;;12.53;0.00
23318;BME280;11831;55.918;37.746;2023-04-28T01:53:12;98814.38;;;12.69;0.00
23318;BME280;11831;55.918;37.746;2023-04-28T01:55:39;98811.91;;;12.58;0.00
23318;BME280;11831;55.918;37.746;2023-04-28T01:58:05;98810.28;;;12.57;0.00
23318;BME280;11831;55.918;37.746;2023-04-28T02:00:32;98806.47;;;12.53;0.00
23318;BME280;11831;55.918;37.746;2023-04-28T02:02:58;98813.63;;;12.42;0.00
23318;BME280;11831;55.918;37.746;2023-04-28T02:05:24;98816.09;;;12.49;0.00
23318;BME280;11831;55.918;37.746;2023-04-28T02:07:50;98829.16;;;12.40;0.00
23318;BME280;11831;55.918;37.746;2023-04-28T02:10:16;98833.78;;;12.50;0.00
23318;BME280;11831;55.918;37.746;2023-04-28T02:12:42;98827.09;;;12.52;0.00
23318;BME280;11831;55.918;37.746;2023-04-28T02:15:09;98815.94;;;12.97;0.00
23318;BME280;11831;55.918;37.746;2023-04-28T02:17:35;98817.31;;;12.36;0.00
23318;BME280;11831;55.918;37.746;2023-04-28T02:20:01;98816.34;;;12.47;0.00
23318;BME280;11831;55.918;37.746;2023-04-28T02:22:28;98810.94;;;12.42;0.00
23318;BME280;11831;55.918;37.746;2023-04-28T02:24:55;98805.50;;;12.32;0.00
23318;BME280;11831;55.918;37.746;2023-04-28T02:27:21;98805.31;;;12.43;0.00
23318;BME280;11831;55.918;37.746;2023-04-28T02:29:47;98799.13;;;12.38;0.00
23318;BME280;11831;55.918;37.746;2023-04-28T02:32:14;98803.13;;;12.35;0.00
23318;BME280;11831;55.918;37.746;2023-04-28T02:34:40;98808.72;;;12.34;0.00
23318;BME280;11831;55.918;37.746;2023-04-28T02:37:06;98806.38;;;12.74;0.00
23318;BME280;11831;55.918;37.746;2023-04-28T02:39:32;98812.53;;;12.70;0.00
23318;BME280;11831;55.918;37.746;2023-04-28T02:41:58;98806.22;;;12.54;0.00
23318;BME280;11831;55.918;37.746;2023-04-28T02:44:24;98808.72;;;12.66;0.00
23318;BME280;11831;55.918;37.746;2023-04-28T02:46:50;98812.25;;;12.71;0.00
23318;BME280;11831;55.918;37.746;2023-04-28T02:49:16;98809.31;;;12.73;0.00
23318;BME280;11831;55.918;37.746;2023-04-28T02:51:42;98802.44;;;12.50;0.00
23318;BME280;11831;55.918;37.746;2023-04-28T02:54:08;98799.03;;;12.60;0.00
23318;BME280;11831;55.918;37.746;2023-04-28T02:56:35;98805.66;;;12.52;0.00
23318;BME280;11831;55.918;37.746;2023-04-28T02:59:01;98806.53;;;12.58;0.00
23318;BME280;11831;55.918;37.746;2023-04-28T03:01:28;98815.31;;;12.53;0.00
23318;BME280;11831;55.918;37.746;2023-04-28T03:03:54;98810.00;;;12.90;0.00
23318;BME280;11831;55.918;37.746;2023-04-28T03:06:20;98810.84;;;13.01;0.00
23318;BME280;11831;55.918;37.746;2023-04-28T03:08:47;98818.84;;;12.91;0.00
23318;BME280;11831;55.918;37.746;2023-04-28T03:11:13;98818.41;;;13.09;0.00
23318;BME280;11831;55.918;37.746;2023-04-28T03:13:39;98818.34;;;12.99;0.00
23318;BME280;11831;55.918;37.746;2023-04-28T03:16:05;98830.13;;;13.30;0.00
23318;BME280;11831;55.918;37.746;2023-04-28T03:18:32;98828.28;;;12.98;0.00
23318;BME280;11831;55.918;37.746;2023-04-28T03:20:58;98824.59;;;12.72;0.00
23318;BME280;11831;55.918;37.746;2023-04-28T03:23:25;98834.59;;;12.82;0.00
23318;BME280;11831;55.918;37.746;2023-04-28T03:25:51;98824.00;;;12.97;0.00
23318;BME280;11831;55.918;37.746;2023-04-28T03:28:17;98828.97;;;12.84;0.00
23318;BME280;11831;55.918;37.746;2023-04-28T03:30:43;98834.91;;;12.86;0.00
23318;BME280;11831;55.918;37.746;2023-04-28T03:33:09;98838.31;;;12.76;0.00
23318;BME280;11831;55.918;37.746;2023-04-28T03:35:35;98839.28;;;12.97;0.00
23318;BME280;11831;55.918;37.746;2023-04-28T03:38:01;98838.91;;;12.83;0.00
23318;BME280;11831;55.918;37.746;2023-04-28T03:40:27;98843.94;;;12.74;0.00
23318;BME280;11831;55.918;37.746;2023-04-28T03:42:54;98849.34;;;12.80;0.00
23318;BME280;11831;55.918;37.746;2023-04-28T03:45:20;98828.59;;;13.07;0.00
23318;BME280;11831;55.918;37.746;2023-04-28T03:47:46;98826.84;;;13.18;0.00
23318;BME280;11831;55.918;37.746;2023-04-28T03:50:12;98834.53;;;13.09;0.00
23318;BME280;11831;55.918;37.746;2023-04-28T03:52:38;98841.13;;;13.28;0.00
23318;BME280;11831;55.918;37.746;2023-04-28T03:55:04;98837.69;;;13.38;0.00
23318;BME280;11831;55.918;37.746;2023-04-28T03:57:31;98840.50;;;13.63;0.00
23318;BME280;11831;55.918;37.746;2023-04-28T03:59:57;98843.47;;;13.72;0.00
23318;BME280;11831;55.918;37.746;2023-04-28T04:02:23;98842.66;;;13.72;0.00
23318;BME280;11831;55.918;37.746;2023-04-28T04:04:49;98839.78;;;13.88;0.00
23318;BME280;11831;55.918;37.746;2023-04-28T04:07:15;98840.34;;;14.01;0.00
23318;BME280;11831;55.918;37.746;2023-04-28T04:09:41;98846.66;;;13.64;0.00
23318;BME280;11831;55.918;37.746;2023-04-28T04:12:07;98846.97;;;13.73;0.00
23318;BME280;11831;55.918;37.746;2023-04-28T04:14:34;98847.16;;;13.51;0.00
23318;BME280;11831;55.918;37.746;2023-04-28T04:17:00;98841.81;;;13.56;0.00
23318;BME280;11831;55.918;37.746;2023-04-28T04:19:26;98843.22;;;13.74;0.00
23318;BME280;11831;55.918;37.746;2023-04-28T04:21:52;98848.88;;;13.25;0.00
23318;BME280;11831;55.918;37.746;2023-04-28T04:24:18;98852.59;;;13.66;0.00
23318;BME280;11831;55.918;37.746;2023-04-28T04:26:45;98851.06;;;13.80;0.00
23318;BME280;11831;55.918;37.746;2023-04-28T04:29:11;98855.84;;;13.73;0.00
23318;BME280;11831;55.918;37.746;2023-04-28T04:31:37;98847.94;;;14.09;0.00
23318;BME280;11831;55.918;37.746;2023-04-28T04:34:03;98841.50;;;14.20;0.00
23318;BME280;11831;55.918;37.746;2023-04-28T04:36:30;98852.06;;;14.47;0.00
23318;BME280;11831;55.918;37.746;2023-04-28T04:38:57;98853.66;;;14.53;0.00
23318;BME280;11831;55.918;37.746;2023-04-28T04:41:26;98856.09;;;14.65;0.00
23318;BME280;11831;55.918;37.746;2023-04-28T04:43:53;98848.28;;;14.94;0.00
23318;BME280;11831;55.918;37.746;2023-04-28T04:46:19;98853.13;;;14.61;0.00
23318;BME280;11831;55.918;37.746;2023-04-28T04:48:45;98855.56;;;14.88;0.00
23318;BME280;11831;55.918;37.746;2023-04-28T04:51:11;98855.03;;;14.71;0.00
23318;BME280;11831;55.918;37.746;2023-04-28T04:53:38;98843.72;;;14.64;0.00
23318;BME280;11831;55.918;37.746;2023-04-28T04:56:04;98842.94;;;14.73;0.00
23318;BME280;11831;55.918;37.746;2023-04-28T04:58:30;98845.06;;;14.56;0.00
23318;BME280;11831;55.918;37.746;2023-04-28T05:00:56;98851.81;;;14.79;0.00
23318;BME280;11831;55.918;37.746;2023-04-28T05:03:23;98854.22;;;14.80;0.00
23318;BME280;11831;55.918;37.746;2023-04-28T05:05:49;98866.63;;;14.71;0.00
23318;BME280;11831;55.918;37.746;2023-04-28T05:08:16;98873.06;;;14.85;0.00
23318;BME280;11831;55.918;37.746;2023-04-28T05:10:42;98870.09;;;15.02;0.00
23318;BME280;11831;55.918;37.746;2023-04-28T05:13:08;98866.88;;;15.05;0.00
23318;BME280;11831;55.918;37.746;2023-04-28T05:15:34;98869.84;;;14.83;0.00
23318;BME280;11831;55.918;37.746;2023-04-28T05:18:01;98876.03;;;14.74;0.00
23318;BME280;11831;55.918;37.746;2023-04-28T05:20:34;98876.78;;;15.40;0.00
23318;BME280;11831;55.918;37.746;2023-04-28T05:23:00;98877.84;;;15.29;0.00
23318;BME280;11831;55.918;37.746;2023-04-28T05:25:27;98872.50;;;15.34;0.00
23318;BME280;11831;55.918;37.746;2023-04-28T05:27:54;98875.97;;;15.40;0.00
23318;BME280;11831;55.918;37.746;2023-04-28T05:30:20;98884.28;;;15.53;0.00
23318;BME280;11831;55.918;37.746;2023-04-28T05:32:47;98880.66;;;15.99;0.00
23318;BME280;11831;55.918;37.746;2023-04-28T05:35:13;98869.16;;;15.73;0.00
23318;BME280;11831;55.918;37.746;2023-04-28T05:37:40;98878.81;;;15.84;0.00
23318;BME280;11831;55.918;37.746;2023-04-28T05:40:08;98887.72;;;15.84;0.00
23318;BME280;11831;55.918;37.746;2023-04-28T05:42:34;98895.06;;;16.33;0.00
23318;BME280;11831;55.918;37.746;2023-04-28T05:45:00;98888.31;;;16.31;0.00
23318;BME280;11831;55.918;37.746;2023-04-28T05:47:29;98894.34;;;16.62;0.00
23318;BME280;11831;55.918;37.746;2023-04-28T05:49:55;98899.16;;;16.21;0.00
23318;BME280;11831;55.918;37.746;2023-04-28T05:52:21;98886.22;;;16.18;0.00
23318;BME280;11831;55.918;37.746;2023-04-28T05:54:48;98894.28;;;15.63;0.00
23318;BME280;11831;55.918;37.746;2023-04-28T05:57:14;98901.28;;;15.44;0.00
23318;BME280;11831;55.918;37.746;2023-04-28T05:59:40;98902.38;;;15.38;0.00
23318;BME280;11831;55.918;37.746;2023-04-28T06:02:06;98912.34;;;15.42;0.00
23318;BME280;11831;55.918;37.746;2023-04-28T06:04:32;98914.22;;;15.42;0.00
23318;BME280;11831;55.918;37.746;2023-04-28T06:06:59;98906.09;;;15.72;0.00
23318;BME280;11831;55.918;37.746;2023-04-28T06:09:25;98908.75;;;15.82;0.00
23318;BME280;11831;55.918;37.746;2023-04-28T06:11:52;98903.59;;;15.91;0.00
23318;BME280;11831;55.918;37.746;2023-04-28T06:14:18;98901.44;;;15.93;0.00
23318;BME280;11831;55.918;37.746;2023-04-28T06:16:44;98896.31;;;16.46;0.00
23318;BME280;11831;55.918;37.746;2023-04-28T06:19:10;98894.28;;;16.28;0.00
23318;BME280;11831;55.918;37.746;2023-04-28T06:21:36;98899.72;;;16.18;0.00
23318;BME280;11831;55.918;37.746;2023-04-28T06:24:02;98894.16;;;16.48;0.00
23318;BME280;11831;55.918;37.746;2023-04-28T06:26:29;98890.91;;;16.46;0.00
23318;BME280;11831;55.918;37.746;2023-04-28T06:28:55;98895.91;;;16.73;0.00
23318;BME280;11831;55.918;37.746;2023-04-28T06:31:21;98893.16;;;16.78;0.00
23318;BME280;11831;55.918;37.746;2023-04-28T06:33:47;98885.63;;;17.09;0.00
23318;BME280;11831;55.918;37.746;2023-04-28T06:36:13;98888.09;;;17.34;0.00
23318;BME280;11831;55.918;37.746;2023-04-28T06:38:43;98884.59;;;17.34;0.00
23318;BME280;11831;55.918;37.746;2023-04-28T06:41:09;98880.31;;;17.57;0.00
23318;BME280;11831;55.918;37.746;2023-04-28T06:43:36;98881.22;;;17.47;0.00
23318;BME280;11831;55.918;37.746;2023-04-28T06:46:03;98872.06;;;17.43;0.00
23318;BME280;11831;55.918;37.746;2023-04-28T06:48:29;98881.13;;;18.24;0.00
23318;BME280;11831;55.918;37.746;2023-04-28T06:50:55;98874.50;;;17.68;0.00
23318;BME280;11831;55.918;37.746;2023-04-28T06:53:21;98873.13;;;17.47;0.00
23318;BME280;11831;55.918;37.746;2023-04-28T06:55:47;98872.13;;;17.62;0.00
23318;BME280;11831;55.918;37.746;2023-04-28T06:58:13;98876.00;;;17.56;0.00
23318;BME280;11831;55.918;37.746;2023-04-28T07:00:40;98874.59;;;17.58;0.00
23318;BME280;11831;55.918;37.746;2023-04-28T07:03:06;98883.72;;;17.38;0.00
23318;BME280;11831;55.918;37.746;2023-04-28T07:05:32;98878.56;;;17.42;0.00
23318;BME280;11831;55.918;37.746;2023-04-28T07:07:59;98882.84;;;17.19;0.00
23318;BME280;11831;55.918;37.746;2023-04-28T07:10:25;98893.03;;;17.27;0.00
23318;BME280;11831;55.918;37.746;2023-04-28T07:12:51;98880.28;;;17.86;0.00
23318;BME280;11831;55.918;37.746;2023-04-28T07:15:17;98891.38;;;17.31;0.00
23318;BME280;11831;55.918;37.746;2023-04-28T07:17:43;98879.13;;;17.68;0.00
23318;BME280;11831;55.918;37.746;2023-04-28T07:20:10;98885.84;;;17.71;0.00
23318;BME280;11831;55.918;37.746;2023-04-28T07:22:36;98887.50;;;18.14;0.00
23318;BME280;11831;55.918;37.746;2023-04-28T07:25:03;98898.34;;;17.90;0.00
23318;BME280;11831;55.918;37.746;2023-04-28T07:27:30;98891.22;;;17.76;0.00
23318;BME280;11831;55.918;37.746;2023-04-28T07:29:57;98901.22;;;17.46;0.00
23318;BME280;11831;55.918;37.746;2023-04-28T07:32:23;98894.47;;;17.73;0.00
23318;BME280;11831;55.918;37.746;2023-04-28T07:34:49;98906.09;;;17.44;0.00
23318;BME280;11831;55.918;37.746;2023-04-28T07:37:15;98892.19;;;17.85;0.00
23318;BME280;11831;55.918;37.746;2023-04-28T07:39:41;98895.63;;;17.90;0.00
23318;BME280;11831;55.918;37.746;2023-04-28T07:42:08;98904.44;;;17.48;0.00
23318;BME280;11831;55.918;37.746;2023-04-28T07:44:34;98915.56;;;17.47;0.00
23318;BME280;11831;55.918;37.746;2023-04-28T07:47:00;98920.84;;;17.57;0.00
23318;BME280;11831;55.918;37.746;2023-04-28T07:49:27;98928.00;;;17.72;0.00
23318;BME280;11831;55.918;37.746;2023-04-28T07:51:53;98928.34;;;17.36;0.00
23318;BME280;11831;55.918;37.746;2023-04-28T07:54:20;98913.53;;;17.57;0.00
23318;BME280;11831;55.918;37.746;2023-04-28T07:56:46;98920.97;;;17.76;0.00
23318;BME280;11831;55.918;37.746;2023-04-28T07:59:15;98917.44;;;17.17;0.00
23318;BME280;11831;55.918;37.746;2023-04-28T08:01:41;98933.13;;;17.15;0.00
23318;BME280;11831;55.918;37.746;2023-04-28T08:04:07;98928.94;;;17.86;0.00
23318;BME280;11831;55.918;37.746;2023-04-28T08:06:34;98916.81;;;18.07;0.00
23318;BME280;11831;55.918;37.746;2023-04-28T08:09:01;98909.31;;;18.42;0.00
23318;BME280;11831;55.918;37.746;2023-04-28T08:11:27;98908.00;;;17.73;0.00
23318;BME280;11831;55.918;37.746;2023-04-28T08:13:53;98919.06;;;17.76;0.00
23318;BME280;11831;55.918;37.746;2023-04-28T08:16:21;98925.72;;;17.55;0.00
23318;BME280;11831;55.918;37.746;2023-04-28T08:18:47;98932.00;;;16.82;0.00
23318;BME280;11831;55.918;37.746;2023-04-28T08:21:13;98933.31;;;17.24;0.00
23318;BME280;11831;55.918;37.746;2023-04-28T08:23:39;98926.59;;;17.50;0.00
23318;BME280;11831;55.918;37.746;2023-04-28T08:26:06;98935.06;;;17.38;0.00
23318;BME280;11831;55.918;37.746;2023-04-28T08:28:32;98931.09;;;17.31;0.00
23318;BME280;11831;55.918;37.746;2023-04-28T08:30:58;98925.94;;;17.00;0.00
23318;BME280;11831;55.918;37.746;2023-04-28T08:33:25;98919.25;;;17.27;0.00
23318;BME280;11831;55.918;37.746;2023-04-28T08:35:51;98911.31;;;17.35;0.00
23318;BME280;11831;55.918;37.746;2023-04-28T08:38:17;98912.06;;;17.41;0.00
23318;BME280;11831;55.918;37.746;2023-04-28T08:40:44;98911.53;;;17.15;0.00
23318;BME280;11831;55.918;37.746;2023-04-28T08:43:10;98916.03;;;17.25;0.00
23318;BME280;11831;55.918;37.746;2023-04-28T08:45:39;98903.97;;;17.94;0.00
23318;BME280;11831;55.918;37.746;2023-04-28T08:48:05;98916.06;;;17.78;0.00
23318;BME280;11831;55.918;37.746;2023-04-28T08:50:35;98928.25;;;17.12;0.00
23318;BME280;11831;55.918;37.746;2023-04-28T08:53:03;98923.97;;;16.72;0.00
23318;BME280;11831;55.918;37.746;2023-04-28T08:55:29;98924.31;;;16.60;0.00
23318;BME280;11831;55.918;37.746;2023-04-28T08:57:56;98932.72;;;16.49;0.00
23318;BME280;11831;55.918;37.746;2023-04-28T09:00:22;98935.31;;;16.74;0.00
23318;BME280;11831;55.918;37.746;2023-04-28T09:02:49;98942.44;;;16.55;0.00
23318;BME280;11831;55.918;37.746;2023-04-28T09:05:15;98933.59;;;16.39;0.00
23318;BME280;11831;55.918;37.746;2023-04-28T09:07:44;98946.09;;;16.74;0.00
23318;BME280;11831;55.918;37.746;2023-04-28T09:12:46;98946.31;;;16.83;0.00
23318;BME280;11831;55.918;37.746;2023-04-28T09:15:55;98948.31;;;16.62;0.00
23318;BME280;11831;55.918;37.746;2023-04-28T09:18:02;98952.41;;;16.54;0.00
23318;BME280;11831;55.918;37.746;2023-04-28T09:20:28;98961.28;;;16.60;0.00
23318;BME280;11831;55.918;37.746;2023-04-28T09:22:55;98960.22;;;16.56;0.00
23318;BME280;11831;55.918;37.746;2023-04-28T09:25:27;98953.50;;;16.53;0.00
23318;BME280;11831;55.918;37.746;2023-04-28T09:27:53;98958.25;;;16.71;0.00
23318;BME280;11831;55.918;37.746;2023-04-28T09:30:19;98960.00;;;16.42;0.00
23318;BME280;11831;55.918;37.746;2023-04-28T09:33:03;98964.09;;;16.34;0.00
23318;BME280;11831;55.918;37.746;2023-04-28T09:35:39;98964.22;;;16.63;0.00
23318;BME280;11831;55.918;37.746;2023-04-28T09:38:06;98962.63;;;16.67;0.00
23318;BME280;11831;55.918;37.746;2023-04-28T09:40:32;98968.06;;;16.52;0.00
23318;BME280;11831;55.918;37.746;2023-04-28T09:42:59;98963.47;;;16.53;0.00
23318;BME280;11831;55.918;37.746;2023-04-28T09:45:25;98955.44;;;16.42;0.00
23318;BME280;11831;55.918;37.746;2023-04-28T09:47:51;98961.12;;;16.90;0.00
23318;BME280;11831;55.918;37.746;2023-04-28T09:50:18;98957.94;;;16.78;0.00
23318;BME280;11831;55.918;37.746;2023-04-28T09:52:44;98961.78;;;16.72;0.00
23318;BME280;11831;55.918;37.746;2023-04-28T09:55:13;98951.84;;;16.52;0.00
23318;BME280;11831;55.918;37.746;2023-04-28T09:57:40;98961.28;;;16.60;0.00
23318;BME280;11831;55.918;37.746;2023-04-28T10:00:09;98964.41;;;16.82;0.00
23318;BME280;11831;55.918;37.746;2023-04-28T10:02:36;98960.09;;;17.20;0.00
23318;BME280;11831;55.918;37.746;2023-04-28T10:05:03;98943.78;;;17.59;0.00
23318;BME280;11831;55.918;37.746;2023-04-28T10:07:30;98955.69;;;17.58;0.00
23318;BME280;11831;55.918;37.746;2023-04-28T10:09:59;98962.09;;;17.04;0.00
23318;BME280;11831;55.918;37.746;2023-04-28T10:12:26;98979.53;;;17.22;0.00
23318;BME280;11831;55.918;37.746;2023-04-28T10:14:52;98967.19;;;17.40;0.00
23318;BME280;11831;55.918;37.746;2023-04-28T10:17:22;98967.38;;;17.83;0.00
23318;BME280;11831;55.918;37.746;2023-04-28T10:19:52;98947.53;;;18.35;0.00
23318;BME280;11831;55.918;37.746;2023-04-28T10:27:14;98954.53;;;17.69;0.00
23318;BME280;11831;55.918;37.746;2023-04-28T10:29:42;98935.47;;;18.27;0.00
23318;BME280;11831;55.918;37.746;2023-04-28T10:34:40;98922.88;;;18.18;0.00
23318;BME280;11831;55.918;37.746;2023-04-28T10:37:06;98922.66;;;18.76;0.00
23318;BME280;11831;55.918;37.746;2023-04-28T10:39:32;98935.72;;;18.50;0.00
23318;BME280;11831;55.918;37.746;2023-04-28T10:41:58;98924.59;;;18.51;0.00
23318;BME280;11831;55.918;37.746;2023-04-28T10:57:42;98911.34;;;19.06;0.00
23318;BME280;11831;55.918;37.746;2023-04-28T11:00:27;98920.03;;;18.71;0.00
23318;BME280;11831;55.918;37.746;2023-04-28T11:02:53;98932.44;;;18.90;0.00
23318;BME280;11831;55.918;37.746;2023-04-28T11:05:19;98917.31;;;19.54;0.00
23318;BME280;11831;55.918;37.746;2023-04-28T11:13:27;98914.66;;;18.84;0.00
23318;BME280;11831;55.918;37.746;2023-04-28T11:16:05;98907.41;;;19.31;0.00
23318;BME280;11831;55.918;37.746;2023-04-28T11:18:38;98911.44;;;18.82;0.00
23318;BME280;11831;55.918;37.746;2023-04-28T11:21:13;98923.91;;;18.83;0.00
23318;BME280;11831;55.918;37.746;2023-04-28T11:23:39;98922.97;;;18.74;0.00
23318;BME280;11831;55.918;37.746;2023-04-28T11:26:06;98936.97;;;18.39;0.00
23318;BME280;11831;55.918;37.746;2023-04-28T11:28:32;98953.06;;;18.06;0.00
23318;BME280;11831;55.918;37.746;2023-04-28T11:31:14;98948.31;;;17.06;0.00
23318;BME280;11831;55.918;37.746;2023-04-28T11:33:46;98955.53;;;18.69;0.00
23318;BME280;11831;55.918;37.746;2023-04-28T11:38:49;98963.75;;;17.63;0.00
23318;BME280;11831;55.918;37.746;2023-04-28T11:41:15;98969.44;;;17.62;0.00
23318;BME280;11831;55.918;37.746;2023-04-28T11:43:42;98964.28;;;17.65;0.00
23318;BME280;11831;55.918;37.746;2023-04-28T11:46:08;98973.47;;;17.01;0.00
23318;BME280;11831;55.918;37.746;2023-04-28T11:48:35;98974.91;;;16.29;0.00
23318;BME280;11831;55.918;37.746;2023-04-28T11:51:01;98990.38;;;17.12;0.00
23318;BME280;11831;55.918;37.746;2023-04-28T11:53:42;98980.69;;;16.67;0.00
23318;BME280;11831;55.918;37.746;2023-04-28T11:56:09;99000.03;;;16.14;0.00
23318;BME280;11831;55.918;37.746;2023-04-28T11:58:35;98990.41;;;15.98;0.00
23318;BME280;11831;55.918;37.746;2023-04-28T12:03:40;98978.94;;;16.37;0.00
23318;BME280;11831;55.918;37.746;2023-04-28T12:06:07;98984.19;;;16.03;0.00
23318;BME280;11831;55.918;37.746;2023-04-28T12:08:33;98986.41;;;15.75;0.00
23318;BME280;11831;55.918;37.746;2023-04-28T12:11:12;98975.22;;;16.18;0.00
23318;BME280;11831;55.918;37.746;2023-04-28T12:13:38;98976.75;;;16.39;0.00
23318;BME280;11831;55.918;37.746;2023-04-28T12:16:05;98986.81;;;16.18;0.00
23318;BME280;11831;55.918;37.746;2023-04-28T12:18:31;98983.84;;;16.20;0.00
23318;BME280;11831;55.918;37.746;2023-04-28T12:20:57;98989.53;;;16.13;0.00
23318;BME280;11831;55.918;37.746;2023-04-28T12:23:30;98993.28;;;16.17;0.00
23318;BME280;11831;55.918;37.746;2023-04-28T12:25:57;98990.38;;;16.03;0.00
23318;BME280;11831;55.918;37.746;2023-04-28T12:28:23;98980.66;;;16.07;0.00
23318;BME280;11831;55.918;37.746;2023-04-28T12:31:04;98986.91;;;15.98;0.00
23318;BME280;11831;55.918;37.746;2023-04-28T12:33:31;98997.38;;;16.09;0.00
23318;BME280;11831;55.918;37.746;2023-04-28T12:36:03;99000.66;;;15.96;0.00
23318;BME280;11831;55.918;37.746;2023-04-28T12:38:30;98989.28;;;16.09;0.00
23318;BME280;11831;55.918;37.746;2023-04-28T12:40:57;98988.41;;;16.29;0.00
23318;BME280;11831;55.918;37.746;2023-04-28T12:43:24;98990.84;;;16.26;0.00
23318;BME280;11831;55.918;37.746;2023-04-28T12:45:52;98993.59;;;16.10;0.00
23318;BME280;11831;55.918;37.746;2023-04-28T12:48:19;99000.03;;;16.14;0.00
23318;BME280;11831;55.918;37.746;2023-04-28T12:50:45;98997.06;;;16.16;0.00
23318;BME280;11831;55.918;37.746;2023-04-28T12:53:11;99007.66;;;15.97;0.00
23318;BME280;11831;55.918;37.746;2023-04-28T12:55:37;99012.00;;;15.93;0.00
23318;BME280;11831;55.918;37.746;2023-04-28T12:58:05;98998.75;;;16.02;0.00
23318;BME280;11831;55.918;37.746;2023-04-28T13:00:31;99000.66;;;15.86;0.00
23318;BME280;11831;55.918;37.746;2023-04-28T13:02:57;99001.22;;;15.78;0.00
23318;BME280;11831;55.918;37.746;2023-04-28T13:05:23;99005.81;;;15.67;0.00
23318;BME280;11831;55.918;37.746;2023-04-28T13:07:50;99002.28;;;15.57;0.00
23318;BME280;11831;55.918;37.746;2023-04-28T13:10:17;99007.41;;;15.83;0.00
23318;BME280;11831;55.918;37.746;2023-04-28T13:12:45;98990.34;;;17.22;0.00
23318;BME280;11831;55.918;37.746;2023-04-28T13:15:11;98976.34;;;16.71;0.00
23318;BME280;11831;55.918;37.746;2023-04-28T13:17:37;98983.91;;;16.04;0.00
23318;BME280;11831;55.918;37.746;2023-04-28T13:20:04;98999.44;;;16.92;0.00
23318;BME280;11831;55.918;37.746;2023-04-28T13:22:31;99001.84;;;17.67;0.00
23318;BME280;11831;55.918;37.746;2023-04-28T13:24:57;98991.53;;;16.52;0.00
23318;BME280;11831;55.918;37.746;2023-04-28T13:27:23;98982.97;;;16.39;0.00
23318;BME280;11831;55.918;37.746;2023-04-28T13:29:49;98991.81;;;17.04;0.00
23318;BME280;11831;55.918;37.746;2023-04-28T13:32:16;98982.81;;;16.75;0.00